Time;durP1;ratioP1;P1;durP2;ratioP2;P2;SDS_P1;SDS_P2;PMS_P1;PMS_P2;Temp;Humidity;BMP_temperature;BMP_pressure;BME280_temperature;BME280_humidity;BME280_pressure;Samples;Min_cycle;Max_cycle;Signal;HPM_P1;HPM_P2
2023/03/07 00:01:29;;;;;;;8.23;5.20;;;;;;;5.02;100.00;99880.44;10417181;28;20090;-76
2023/03/07 00:06:29;;;;;;;8.80;4.43;;;;;;;4.93;100.00;99874.34;10416537;28;20036;-73
2023/03/07 00:11:30;;;;;;;8.07;4.95;;;;;;;4.97;100.00;99878.28;10414489;28;20047;-73
2023/03/07 00:16:30;;;;;;;7.65;5.90;;;;;;;4.96;100.00;99882.00;10413787;28;20057;-73
2023/03/07 00:21:31;;;;;;;14.57;5.35;;;;;;;4.92;100.00;99866.47;10397209;28;20406;-72
2023/03/07 00:26:32;;;;;;;5.70;5.20;;;;;;;4.99;100.00;99870.91;10414657;28;20053;-72
2023/03/07 00:31:32;;;;;;;7.90;5.63;;;;;;;5.01;100.00;99870.69;10414731;28;20438;-73
2023/03/07 00:36:33;;;;;;;12.38;4.35;;;;;;;4.98;100.00;99863.88;10397864;28;20061;-73
2023/03/07 00:41:33;;;;;;;10.30;4.93;;;;;;;4.99;100.00;99859.34;10413378;28;20529;-73
2023/03/07 00:46:34;;;;;;;8.63;5.63;;;;;;;4.95;100.00;99853.53;10415173;28;20033;-73
2023/03/07 00:51:34;;;;;;;11.13;6.25;;;;;;;5.02;100.00;99851.75;10415886;28;20045;-72
2023/03/07 00:56:34;;;;;;;7.82;5.72;;;;;;;5.00;100.00;99844.91;10419439;28;20411;-71
2023/03/07 01:01:35;;;;;;;8.07;5.28;;;;;;;5.00;100.00;99855.63;10422158;28;20037;-72
2023/03/07 01:06:35;;;;;;;17.92;6.00;;;;;;;5.00;100.00;99852.94;10422993;28;20535;-72
2023/03/07 01:11:36;;;;;;;6.22;5.25;;;;;;;4.92;100.00;99848.53;10399955;28;20117;-72
2023/03/07 01:16:36;;;;;;;6.25;4.95;;;;;;;4.88;100.00;99834.66;10414668;28;20161;-71
2023/03/07 01:21:39;;;;;;;11.57;5.15;;;;;;;4.97;100.00;99835.38;10416291;28;20094;-72
2023/03/07 01:26:39;;;;;;;15.00;4.85;;;;;;;4.99;100.00;99838.72;10421379;28;20432;-72
2023/03/07 01:31:41;;;;;;;12.90;4.38;;;;;;;4.88;100.00;99839.16;10419931;28;20048;-73
2023/03/07 01:36:41;;;;;;;4.85;3.88;;;;;;;4.88;100.00;99825.75;10421762;28;20052;-73
2023/03/07 01:41:42;;;;;;;7.10;3.08;;;;;;;4.89;100.00;99820.22;10421276;28;20040;-75
2023/03/07 01:46:42;;;;;;;8.88;2.58;;;;;;;4.95;100.00;99810.59;10403159;28;20035;-71
2023/03/07 01:51:45;;;;;;;7.30;2.05;;;;;;;4.99;100.00;99800.31;10420000;28;20095;-72
2023/03/07 01:56:45;;;;;;;12.27;2.72;;;;;;;5.02;100.00;99805.31;10420879;28;20125;-71
2023/03/07 02:01:46;;;;;;;7.78;3.13;;;;;;;4.96;100.00;99800.69;10402758;28;20035;-71
2023/03/07 02:06:46;;;;;;;17.02;2.88;;;;;;;4.96;100.00;99795.34;10419292;28;20060;-71
2023/03/07 02:11:47;;;;;;;8.07;3.17;;;;;;;4.92;100.00;99783.31;10387657;28;20032;-72
2023/03/07 02:16:47;;;;;;;10.00;4.60;;;;;;;4.90;100.00;99781.63;10418824;28;20172;-71
2023/03/07 02:22:12;;;;;;;10.60;4.22;;;;;;;4.90;100.00;99770.06;10419798;28;20159;-72
2023/03/07 02:27:13;;;;;;;8.55;3.83;;;;;;;4.95;100.00;99773.03;10404628;28;20029;-72
2023/03/07 02:32:14;;;;;;;12.25;3.88;;;;;;;4.93;100.00;99764.34;10400775;28;20033;-72
2023/03/07 02:37:25;;;;;;;16.50;4.53;;;;;;;4.95;100.00;99766.84;10422091;28;20045;-71
2023/03/07 02:42:27;;;;;;;23.45;5.78;;;;;;;4.90;100.00;99764.72;10401970;28;20034;-71
2023/03/07 02:47:27;;;;;;;7.45;4.05;;;;;;;4.87;100.00;99760.56;10418068;28;20048;-72
2023/03/07 02:52:28;;;;;;;9.52;4.72;;;;;;;4.83;100.00;99751.22;10417907;28;20120;-72
2023/03/07 02:57:29;;;;;;;10.23;4.68;;;;;;;4.83;100.00;99755.78;10419931;28;20492;-71
2023/03/07 03:02:29;;;;;;;11.30;6.43;;;;;;;4.81;100.00;99747.91;10419148;28;20041;-72
2023/03/07 03:07:29;;;;;;;6.63;4.10;;;;;;;4.84;100.00;99744.84;10418164;28;20040;-72
2023/03/07 03:12:30;;;;;;;6.28;4.75;;;;;;;4.87;100.00;99738.25;10400124;28;20057;-72
2023/03/07 03:17:30;;;;;;;4.63;4.18;;;;;;;4.89;100.00;99746.97;10417758;28;20064;-71
2023/03/07 03:22:31;;;;;;;9.43;5.15;;;;;;;4.81;100.00;99728.28;10420547;28;20048;-71
2023/03/07 03:27:32;;;;;;;12.95;5.40;;;;;;;4.80;100.00;99735.50;10423728;28;20029;-72
2023/03/07 03:32:32;;;;;;;14.77;5.80;;;;;;;4.80;100.00;99732.00;10403635;28;20392;-71
2023/03/07 03:37:33;;;;;;;6.70;4.75;;;;;;;4.80;100.00;99732.00;10415379;28;20105;-72
2023/03/07 03:42:33;;;;;;;12.18;5.40;;;;;;;4.81;100.00;99734.47;10414610;28;20060;-72
2023/03/07 03:47:33;;;;;;;10.05;6.28;;;;;;;4.78;100.00;99726.81;10416067;28;20033;-72
2023/03/07 03:52:34;;;;;;;9.30;5.03;;;;;;;4.63;100.00;99720.69;10417624;28;20059;-72
2023/03/07 03:57:35;;;;;;;4.70;4.40;;;;;;;4.48;100.00;99725.22;10397461;28;20091;-72
2023/03/07 04:02:35;;;;;;;6.47;3.97;;;;;;;4.32;100.00;99727.06;10416467;28;20069;-72
2023/03/07 04:07:35;;;;;;;5.00;4.03;;;;;;;4.20;100.00;99724.03;10413464;28;20040;-72
2023/03/07 04:12:36;;;;;;;5.20;3.47;;;;;;;4.22;100.00;99731.06;10413951;28;20072;-73
2023/03/07 04:17:36;;;;;;;6.25;2.40;;;;;;;4.18;100.00;99728.75;10415687;28;20136;-73
2023/03/07 04:22:38;;;;;;;3.85;2.65;;;;;;;4.17;100.00;99723.56;10414844;28;20055;-74
2023/03/07 04:27:38;;;;;;;1.67;1.63;;;;;;;4.15;100.00;99718.41;10415152;28;20457;-74
2023/03/07 04:32:38;;;;;;;6.85;2.53;;;;;;;4.13;100.00;99712.38;10412866;28;20038;-75
2023/03/07 04:37:39;;;;;;;7.85;1.80;;;;;;;4.11;100.00;99702.88;10414055;28;20061;-75
2023/03/07 04:42:39;;;;;;;6.13;2.28;;;;;;;4.12;100.00;99699.19;10414257;28;20037;-75
2023/03/07 04:47:40;;;;;;;3.30;2.35;;;;;;;4.12;100.00;99696.50;10412408;28;20038;-76
2023/03/07 04:52:40;;;;;;;12.55;2.85;;;;;;;4.03;100.00;99698.44;10412969;28;20243;-77
2023/03/07 04:57:41;;;;;;;2.42;1.60;;;;;;;3.95;100.00;99702.03;10420238;28;20037;-76
2023/03/07 05:02:41;;;;;;;10.70;1.80;;;;;;;3.90;100.00;99708.97;10421383;28;20148;-78
2023/03/07 05:07:42;;;;;;;4.18;2.28;;;;;;;3.87;100.00;99717.38;10422940;28;20354;-77
2023/03/07 05:12:42;;;;;;;9.35;2.53;;;;;;;3.81;100.00;99710.91;10421872;28;20127;-79
2023/03/07 05:17:43;;;;;;;1.77;1.67;;;;;;;3.66;100.00;99715.38;10423865;28;20064;-77
2023/03/07 05:22:43;;;;;;;1.42;1.23;;;;;;;3.56;100.00;99721.00;10405451;28;20123;-78
2023/03/07 05:27:44;;;;;;;5.18;2.20;;;;;;;3.46;100.00;99723.94;10405068;28;20056;-77
2023/03/07 05:32:44;;;;;;;2.97;1.85;;;;;;;3.37;100.00;99718.84;10422987;28;20037;-77
2023/03/07 05:37:45;;;;;;;6.90;2.03;;;;;;;3.25;100.00;99721.09;10421088;28;20064;-76
2023/03/07 05:42:45;;;;;;;5.07;1.52;;;;;;;3.17;100.00;99726.53;10422216;28;20034;-77
2023/03/07 05:47:46;;;;;;;1.40;1.35;;;;;;;2.94;100.00;99724.66;10405243;28;20033;-78
2023/03/07 05:52:46;;;;;;;2.63;2.22;;;;;;;2.81;100.00;99724.41;10405282;28;20458;-78
2023/03/07 05:57:47;;;;;;;4.47;1.90;;;;;;;2.75;100.00;99725.13;10421125;28;20030;-77
2023/03/07 06:02:47;;;;;;;7.53;2.03;;;;;;;2.65;100.00;99717.31;10420589;28;20400;-76
2023/03/07 06:07:48;;;;;;;2.65;1.42;;;;;;;2.63;100.00;99724.66;10420286;28;20034;-77
2023/03/07 06:12:50;;;;;;;6.88;1.95;;;;;;;2.64;100.00;99725.50;10419015;28;20121;-76
2023/03/07 06:17:51;;;;;;;4.15;2.10;;;;;;;2.62;100.00;99735.56;10419666;28;20118;-77
2023/03/07 06:22:51;;;;;;;3.25;2.33;;;;;;;2.63;100.00;99727.34;10422088;28;20046;-78
2023/03/07 06:27:58;;;;;;;1.58;1.48;;;;;;;2.53;100.00;99727.56;10421350;28;20048;-76
2023/03/07 06:32:58;;;;;;;;;;;;;;;2.59;100.00;99730.56;10420150;28;20084;-76
2023/03/07 06:37:59;;;;;;;2.63;1.58;;;;;;;2.55;100.00;99727.38;10420443;28;19974;-77
2023/03/07 06:42:59;;;;;;;3.67;1.85;;;;;;;2.57;100.00;99722.69;10419111;28;20097;-76
2023/03/07 06:47:59;;;;;;;1.88;1.77;;;;;;;2.62;100.00;99728.34;10419048;28;20091;-76
2023/03/07 06:53:00;;;;;;;6.18;1.70;;;;;;;2.69;100.00;99732.00;10418702;28;20033;-77
2023/03/07 06:58:00;;;;;;;4.38;1.88;;;;;;;2.70;100.00;99727.47;10418233;28;20068;-78
2023/03/07 07:03:00;;;;;;;4.38;1.48;;;;;;;2.62;100.00;99725.69;10416949;28;20130;-78
2023/03/07 07:08:01;;;;;;;1.30;1.20;;;;;;;2.61;100.00;99728.53;10416842;28;20033;-75
2023/03/07 07:13:02;;;;;;;2.20;1.75;;;;;;;2.61;100.00;99734.69;10399583;28;20465;-76
2023/03/07 07:18:02;;;;;;;8.35;1.60;;;;;;;2.56;100.00;99742.41;10416533;28;20066;-80
2023/03/07 07:23:03;;;;;;;3.95;1.67;;;;;;;2.58;100.00;99747.56;10400617;28;20060;-76
2023/03/07 07:28:03;;;;;;;7.60;1.77;;;;;;;2.53;100.00;99742.75;10416872;28;20037;-78
2023/03/07 07:33:04;;;;;;;1.48;1.42;;;;;;;2.56;100.00;99745.91;10399128;28;20034;-75
2023/03/07 07:38:04;;;;;;;2.65;1.40;;;;;;;2.53;100.00;99754.28;10418433;28;20061;-78
2023/03/07 07:43:04;;;;;;;7.40;1.90;;;;;;;2.51;100.00;99766.16;10420458;28;20120;-81
2023/03/07 07:48:05;;;;;;;1.45;1.40;;;;;;;2.58;100.00;99772.47;10416880;28;20033;-84
2023/03/07 07:53:05;;;;;;;3.42;2.30;;;;;;;2.67;100.00;99770.59;10417909;28;20056;-76
2023/03/07 07:58:06;;;;;;;1.55;1.55;;;;;;;2.78;100.00;99772.88;10418252;28;20044;-76
2023/03/07 08:03:06;;;;;;;4.90;1.58;;;;;;;2.91;100.00;99772.31;10429303;28;20037;-82
2023/03/07 08:08:06;;;;;;;2.72;2.20;;;;;;;2.96;100.00;99772.59;10442518;28;20036;-79
2023/03/07 08:13:07;;;;;;;0.88;0.88;;;;;;;3.02;100.00;99762.03;10431893;28;20037;-78
2023/03/07 08:18:09;;;;;;;3.85;2.03;;;;;;;3.17;100.00;99770.16;10439806;28;20057;-79
2023/03/07 08:23:10;;;;;;;3.63;1.63;;;;;;;3.20;100.00;99772.47;10457248;28;20041;-78
2023/03/07 08:28:10;;;;;;;5.82;2.63;;;;;;;3.22;100.00;99761.56;10433469;28;20037;-77
2023/03/07 08:33:11;;;;;;;2.05;1.88;;;;;;;3.29;100.00;99762.56;10446593;28;20037;-79
2023/03/07 08:38:11;;;;;;;1.83;1.35;;;;;;;3.42;100.00;99764.63;10442008;28;20037;-78
2023/03/07 08:43:11;;;;;;;3.88;1.85;;;;;;;3.57;100.00;99759.31;10442071;28;20499;-79
2023/03/07 08:48:12;;;;;;;2.42;1.83;;;;;;;3.76;100.00;99766.00;10416172;28;20076;-81
2023/03/07 08:53:13;;;;;;;5.40;2.35;;;;;;;3.89;100.00;99759.03;10422145;28;20045;-77
2023/03/07 08:58:13;;;;;;;1.73;1.63;;;;;;;4.04;100.00;99768.91;10418689;28;20400;-76
2023/03/07 09:03:14;;;;;;;1.85;1.73;;;;;;;4.09;100.00;99769.22;10423858;28;20053;-79
2023/03/07 09:08:14;;;;;;;1.95;1.85;;;;;;;4.14;100.00;99767.63;10418181;28;20033;-79
2023/03/07 09:13:16;;;;;;;4.72;1.63;;;;;;;4.13;100.00;99765.16;10415473;28;20042;-79
2023/03/07 09:18:17;;;;;;;1.40;1.30;;;;;;;4.08;100.00;99775.56;10415263;28;20049;-72
2023/03/07 09:23:17;;;;;;;5.80;1.33;;;;;;;4.03;100.00;99772.63;10417766;28;20046;-77
2023/03/07 09:28:18;;;;;;;1.00;1.00;;;;;;;4.17;100.00;99775.31;10425324;28;20109;-76
2023/03/07 09:33:18;;;;;;;12.98;1.63;;;;;;;4.29;100.00;99767.66;10442303;28;20029;-82
2023/03/07 09:38:19;;;;;;;4.18;1.83;;;;;;;4.31;100.00;99775.53;10454002;28;20021;-78
2023/03/07 09:43:20;;;;;;;2.53;1.65;;;;;;;4.45;100.00;99771.16;10456272;28;20033;-79
2023/03/07 09:48:44;;;;;;;3.42;1.10;;;;;;;4.56;100.00;99768.84;10446748;28;20021;-77
2023/03/07 09:53:52;;;;;;;3.03;1.83;;;;;;;4.60;100.00;99774.69;10437323;28;20044;-79
2023/03/07 09:58:58;;;;;;;3.40;1.85;;;;;;;4.53;100.00;99774.59;10433508;28;20044;-78
2023/03/07 10:04:05;;;;;;;1.73;1.63;;;;;;;4.28;100.00;99778.56;10449424;28;20029;-77
2023/03/07 10:09:09;;;;;;;6.57;1.88;;;;;;;4.08;100.00;99781.75;10457078;28;20034;-78
2023/03/07 10:14:16;;;;;;;1.67;1.38;;;;;;;4.20;100.00;99774.09;10443936;28;20040;-79
2023/03/07 10:19:19;;;;;;;5.95;1.58;;;;;;;4.39;100.00;99780.78;10457716;28;20034;-77
2023/03/07 10:24:36;;;;;;;2.78;1.25;;;;;;;4.37;100.00;99780.97;10448479;28;20483;-80
2023/03/07 10:29:36;;;;;;;;;;;;;;;4.39;100.00;99789.63;10442665;28;20025;-76
2023/03/07 10:34:37;;;;;;;6.25;1.73;;;;;;;4.50;100.00;99793.72;10423527;28;19940;-77
2023/03/07 10:39:53;;;;;;;4.75;1.55;;;;;;;4.60;100.00;99790.75;10421117;28;20445;-77
2023/03/07 10:44:53;;;;;;;1.37;1.37;;;;;;;4.59;100.00;99800.63;10403373;28;20029;-77
2023/03/07 10:49:56;;;;;;;4.35;1.27;;;;;;;4.56;100.00;99792.13;10418521;28;20025;-75
2023/03/07 10:55:34;;;;;;;3.10;1.65;;;;;;;4.61;100.00;99787.88;10416705;28;20430;-78
2023/03/07 11:00:35;;;;;;;0.95;0.95;;;;;;;4.48;100.00;99802.97;10416516;28;20025;-76
2023/03/07 11:05:36;;;;;;;1.48;1.38;;;;;;;4.54;100.00;99792.31;10416814;28;20077;-80
2023/03/07 11:10:40;;;;;;;1.17;1.17;;;;;;;4.55;100.00;99788.63;10419093;28;20039;-77
2023/03/07 11:15:40;;;;;;;2.45;1.38;;;;;;;4.52;100.00;99788.16;10418522;28;20069;-78
2023/03/07 11:20:50;;;;;;;5.47;1.77;;;;;;;4.46;100.00;99794.25;10417215;28;20362;-81
2023/03/07 11:25:51;;;;;;;6.63;1.80;;;;;;;4.50;100.00;99796.41;10402807;28;20025;-79
2023/03/07 11:30:55;;;;;;;3.80;2.15;;;;;;;4.55;100.00;99798.53;10403471;28;20037;-80
2023/03/07 11:36:21;;;;;;;5.13;1.55;;;;;;;4.62;100.00;99805.63;10417743;28;20436;-79
2023/03/07 11:41:27;;;;;;;2.60;1.10;;;;;;;4.39;100.00;99803.03;10416584;28;20041;-76
2023/03/07 11:46:30;;;;;;;1.92;1.25;;;;;;;4.07;100.00;99811.41;10415409;28;20052;-76
2023/03/07 11:51:33;;;;;;;5.90;2.97;;;;;;;3.92;100.00;99814.91;10417575;28;20108;-77
2023/03/07 11:56:35;;;;;;;5.70;1.55;;;;;;;3.95;100.00;99811.84;10416582;28;20469;-77
2023/03/07 12:01:55;;;;;;;5.50;1.67;;;;;;;3.78;100.00;99822.91;10400709;28;20084;-77
2023/03/07 12:07:11;;;;;;;1.40;1.33;;;;;;;3.57;100.00;99821.69;10415478;28;20029;-76
2023/03/07 12:12:29;;;;;;;1.37;1.20;;;;;;;3.46;100.00;99824.81;10416855;28;20033;-75
2023/03/07 12:18:03;;;;;;;7.50;1.98;;;;;;;3.42;100.00;99831.53;10414570;28;20054;-76
2023/03/07 12:23:32;;;;;;;4.65;1.13;;;;;;;3.43;100.00;99831.34;10416841;28;20052;-75
2023/03/07 12:28:43;;;;;;;2.35;1.88;;;;;;;3.45;100.00;99823.97;10398948;28;20121;-75
2023/03/07 12:34:08;;;;;;;4.20;1.45;;;;;;;3.60;100.00;99816.00;10416809;28;20420;-81
2023/03/07 12:39:24;;;;;;;3.35;1.55;;;;;;;3.58;100.00;99818.03;10416140;28;20445;-77
2023/03/07 12:44:33;;;;;;;1.08;1.08;;;;;;;3.50;100.00;99829.59;10414626;28;20385;-76
2023/03/07 12:49:42;;;;;;;1.90;1.73;;;;;;;3.50;100.00;99815.41;10417017;28;20049;-77
2023/03/07 12:54:48;;;;;;;6.47;1.67;;;;;;;3.69;100.00;99822.13;10398455;28;20069;-77
2023/03/07 12:59:50;;;;;;;2.22;1.65;;;;;;;3.70;100.00;99811.25;10415110;28;20358;-77
2023/03/07 13:04:51;;;;;;;6.13;2.58;;;;;;;3.73;100.00;99818.91;10414838;28;20038;-77
2023/03/07 13:09:52;;;;;;;3.30;1.40;;;;;;;3.79;100.00;99822.69;10413851;28;20370;-77
2023/03/07 13:15:00;;;;;;;1.50;1.33;;;;;;;3.90;100.00;99824.97;10398097;28;20049;-77
2023/03/07 13:20:33;;;;;;;2.25;1.73;;;;;;;3.75;100.00;99831.28;10422209;28;20579;-76
2023/03/07 13:25:36;;;;;;;3.28;1.25;;;;;;;3.37;100.00;99831.22;10422667;28;20060;-77
2023/03/07 13:30:36;;;;;;;1.02;1.02;;;;;;;3.31;100.00;99831.94;10422789;28;20029;-76
2023/03/07 13:35:37;;;;;;;1.73;1.48;;;;;;;3.43;100.00;99834.00;10422858;28;20025;-78
2023/03/07 13:40:43;;;;;;;3.70;1.95;;;;;;;3.61;100.00;99830.22;10421081;28;20044;-77
2023/03/07 13:45:46;;;;;;;1.63;1.52;;;;;;;3.84;100.00;99839.06;10422496;28;20105;-78
2023/03/07 13:50:46;;;;;;;2.75;2.08;;;;;;;3.92;100.00;99833.66;10422357;28;20034;-77
2023/03/07 13:55:49;;;;;;;4.45;1.70;;;;;;;3.89;100.00;99842.06;10423500;28;20034;-77
2023/03/07 14:00:52;;;;;;;2.92;1.75;;;;;;;3.87;100.00;99849.44;10420541;28;20384;-77
2023/03/07 14:05:53;;;;;;;5.20;2.03;;;;;;;3.89;100.00;99846.56;10403063;28;20033;-77
2023/03/07 14:10:53;;;;;;;2.78;1.10;;;;;;;3.82;100.00;99846.44;10419891;28;20040;-77
2023/03/07 14:16:19;;;;;;;1.65;1.25;;;;;;;3.84;100.00;99841.75;10402543;28;20137;-77
2023/03/07 14:21:26;;;;;;;1.40;1.30;;;;;;;3.92;100.00;99851.56;10421772;28;20090;-77
2023/03/07 14:26:32;;;;;;;1.35;0.98;;;;;;;3.92;100.00;99848.88;10401499;28;20030;-79
2023/03/07 14:31:37;;;;;;;1.95;1.75;;;;;;;4.10;100.00;99849.41;10418354;28;20034;-78
2023/03/07 14:36:37;;;;;;;9.43;1.88;;;;;;;4.17;100.00;99860.22;10420308;28;20037;-77
2023/03/07 14:42:08;;;;;;;4.65;1.70;;;;;;;4.30;100.00;99855.06;10419532;28;20091;-77
2023/03/07 14:47:38;;;;;;;3.03;1.77;;;;;;;4.09;100.00;99853.09;10419258;28;20025;-77
2023/03/07 14:52:39;;;;;;;3.80;1.67;;;;;;;4.03;100.00;99853.00;10418551;28;20102;-78
2023/03/07 14:57:42;;;;;;;1.55;1.13;;;;;;;4.03;100.00;99855.66;10417659;28;20107;-79
2023/03/07 15:03:00;;;;;;;2.40;1.42;;;;;;;4.08;100.00;99867.47;10419718;28;20425;-77
2023/03/07 15:08:00;;;;;;;5.55;1.55;;;;;;;4.09;100.00;99873.69;10423758;28;20369;-77
2023/03/07 15:13:01;;;;;;;2.53;1.98;;;;;;;4.08;100.00;99872.84;10423598;28;20048;-78
2023/03/07 15:18:12;;;;;;;1.48;1.08;;;;;;;4.12;100.00;99873.34;10426458;28;20095;-79
2023/03/07 15:23:28;;;;;;;5.25;2.35;;;;;;;4.22;100.00;99876.59;10408032;28;20053;-77
2023/03/07 15:28:31;;;;;;;4.00;2.20;;;;;;;4.25;100.00;99881.59;10408062;28;20025;-76
2023/03/07 15:33:31;;;;;;;4.07;1.88;;;;;;;4.29;100.00;99880.22;10421439;28;20048;-78
2023/03/07 15:38:32;;;;;;;1.33;1.23;;;;;;;4.26;100.00;99877.88;10420703;28;20045;-78
2023/03/07 15:43:35;;;;;;;4.50;1.65;;;;;;;4.17;100.00;99878.97;10423156;28;20103;-77
2023/03/07 15:48:40;;;;;;;2.10;1.52;;;;;;;4.14;100.00;99871.28;10420230;28;20034;-77
2023/03/07 15:53:41;;;;;;;3.72;2.13;;;;;;;4.14;100.00;99871.28;10415495;28;20041;-78
2023/03/07 15:58:41;;;;;;;2.70;1.63;;;;;;;4.09;100.00;99876.38;10414015;28;20064;-76
2023/03/07 16:04:02;;;;;;;7.20;1.70;;;;;;;3.90;100.00;99883.88;10413749;28;20060;-77
2023/03/07 16:09:03;;;;;;;3.00;1.52;;;;;;;3.84;100.00;99887.28;10414027;28;20083;-76
2023/03/07 16:14:04;;;;;;;6.57;1.63;;;;;;;3.69;100.00;99894.41;10414268;28;20035;-77
2023/03/07 16:19:04;;;;;;;6.72;1.63;;;;;;;3.65;100.00;99891.25;10397116;28;20560;-77
2023/03/07 16:24:05;;;;;;;4.55;1.88;;;;;;;3.64;100.00;99894.13;10432539;28;20065;-78
2023/03/07 16:29:07;;;;;;;3.50;1.73;;;;;;;3.53;100.00;99895.34;10415343;28;20084;-77
2023/03/07 16:34:16;;;;;;;2.53;1.42;;;;;;;3.45;100.00;99892.72;10415057;28;20034;-78
2023/03/07 16:39:17;;;;;;;5.53;1.65;;;;;;;3.40;100.00;99903.94;10397584;28;20033;-79
2023/03/07 16:44:19;;;;;;;7.55;1.50;;;;;;;3.36;100.00;99901.81;10413884;28;20084;-78
2023/03/07 16:49:19;;;;;;;22.52;2.65;;;;;;;3.29;100.00;99893.66;10413402;28;20030;-78
2023/03/07 16:54:19;;;;;;;10.43;2.45;;;;;;;3.30;100.00;99900.66;10413626;28;20449;-77
2023/03/07 16:59:21;;;;;;;1.50;1.40;;;;;;;3.30;100.00;99913.22;10413218;28;20144;-78
2023/03/07 17:04:22;;;;;;;1.02;0.95;;;;;;;3.17;100.00;99917.28;10413887;28;20033;-79
2023/03/07 17:09:22;;;;;;;2.72;1.52;;;;;;;3.03;100.00;99944.72;10413618;28;20061;-78
2023/03/07 17:14:23;;;;;;;9.27;1.83;;;;;;;2.86;100.00;99933.25;10413181;28;20033;-78
2023/03/07 17:19:25;;;;;;;4.13;2.13;;;;;;;2.70;100.00;99939.47;10398398;28;20072;-78
2023/03/07 17:24:26;;;;;;;4.78;1.75;;;;;;;2.50;100.00;99941.69;10397920;28;20025;-79
2023/03/07 17:29:30;;;;;;;7.50;1.73;;;;;;;2.35;100.00;99955.88;10414832;28;20381;-78
2023/03/07 17:34:32;;;;;;;3.95;1.80;;;;;;;2.17;100.00;99953.38;10417841;28;20459;-79
2023/03/07 17:39:33;;;;;;;6.45;1.88;;;;;;;2.05;100.00;99963.56;10432893;28;20060;-78
2023/03/07 17:44:33;;;;;;;10.38;1.42;;;;;;;1.91;100.00;99969.53;10423898;28;20029;-78
2023/03/07 17:49:35;;;;;;;1.90;1.55;;;;;;;2.01;100.00;99976.41;10418509;28;20033;-78
2023/03/07 17:54:36;;;;;;;6.72;2.70;;;;;;;2.11;100.00;99992.28;10417526;28;20116;-80
2023/03/07 17:59:36;;;;;;;1.63;1.50;;;;;;;1.97;100.00;99992.91;10414095;28;20112;-79
2023/03/07 18:04:37;;;;;;;4.50;1.50;;;;;;;1.80;100.00;100011.56;10420381;28;20444;-79
2023/03/07 18:09:37;;;;;;;2.13;1.70;;;;;;;1.63;100.00;100021.38;10422236;28;20483;-78
2023/03/07 18:14:37;;;;;;;1.15;1.13;;;;;;;1.49;100.00;100029.97;10420816;28;20052;-77
2023/03/07 18:19:38;;;;;;;1.30;1.30;;;;;;;1.32;100.00;100017.56;10403863;28;20045;-78
2023/03/07 18:24:38;;;;;;;2.58;1.77;;;;;;;1.19;100.00;100020.66;10402911;28;20061;-76
2023/03/07 18:29:39;;;;;;;4.30;2.17;;;;;;;1.12;100.00;100022.31;10420466;28;20033;-77
2023/03/07 18:34:39;;;;;;;1.88;1.77;;;;;;;1.09;100.00;100027.94;10419385;28;20164;-75
2023/03/07 18:39:40;;;;;;;2.72;2.25;;;;;;;1.03;100.00;100015.25;10402246;28;20516;-76
2023/03/07 18:44:40;;;;;;;4.53;1.63;;;;;;;0.95;100.00;100017.84;10419007;28;20080;-77
2023/03/07 18:49:41;;;;;;;9.07;2.40;;;;;;;0.96;100.00;100028.38;10419207;28;20435;-75
2023/03/07 18:54:42;;;;;;;5.20;2.22;;;;;;;0.88;100.00;100034.47;10418385;28;20036;-75
2023/03/07 18:59:42;;;;;;;3.83;2.75;;;;;;;0.85;100.00;100029.44;10417870;28;20044;-74
2023/03/07 19:04:42;;;;;;;7.45;3.33;;;;;;;0.80;100.00;100044.22;10418094;28;20041;-75
2023/03/07 19:09:43;;;;;;;4.10;2.70;;;;;;;0.85;100.00;100048.09;10417826;28;20033;-75
2023/03/07 19:14:43;;;;;;;3.50;2.55;;;;;;;0.97;100.00;100048.69;10415954;28;20053;-74
2023/03/07 19:19:45;;;;;;;2.35;1.90;;;;;;;0.90;100.00;100048.47;10417434;28;20037;-74
2023/03/07 19:24:46;;;;;;;1.60;1.38;;;;;;;1.09;100.00;100066.09;10416006;28;20130;-74
2023/03/07 19:29:46;;;;;;;1.58;1.48;;;;;;;1.17;100.00;100057.31;10416576;28;20138;-73
2023/03/07 19:34:49;;;;;;;1.50;1.40;;;;;;;1.01;100.00;100060.72;10415661;28;20095;-74
2023/03/07 19:39:51;;;;;;;1.40;1.30;;;;;;;0.80;100.00;100062.88;10415337;28;20029;-74
2023/03/07 19:44:53;;;;;;;1.58;1.20;;;;;;;0.57;100.00;100059.88;10400117;28;20045;-71
2023/03/07 19:49:53;;;;;;;3.13;1.95;;;;;;;0.36;100.00;100063.69;10416186;28;20029;-73
2023/03/07 19:54:53;;;;;;;2.72;1.85;;;;;;;0.34;100.00;100075.47;10415404;28;20037;-73
2023/03/07 19:59:55;;;;;;;7.88;1.67;;;;;;;0.72;100.00;100065.50;10414172;28;20037;-72
2023/03/07 20:04:56;;;;;;;2.00;1.88;;;;;;;0.78;100.00;100064.88;10415784;28;20038;-72
2023/03/07 20:09:57;;;;;;;3.28;2.08;;;;;;;0.58;100.00;100058.91;10416948;28;20052;-73
2023/03/07 20:14:57;;;;;;;7.57;2.55;;;;;;;0.40;100.00;100064.22;10413747;28;20053;-72
2023/03/07 20:19:58;;;;;;;3.92;2.42;;;;;;;0.22;100.00;100061.53;10414811;28;20499;-74
2023/03/07 20:24:58;;;;;;;3.42;2.10;;;;;;;0.15;100.00;100063.97;10397292;28;20034;-74
2023/03/07 20:29:59;;;;;;;7.43;2.42;;;;;;;0.21;100.00;100062.53;10397310;28;20038;-71
2023/03/07 20:35:02;;;;;;;5.30;2.97;;;;;;;0.30;100.00;100063.47;10414309;28;20443;-73
2023/03/07 20:40:04;;;;;;;5.85;3.63;;;;;;;0.38;100.00;100069.72;10414558;28;20034;-72
2023/03/07 20:45:05;;;;;;;5.57;1.52;;;;;;;0.49;100.00;100062.47;10414051;28;20030;-72
2023/03/07 20:50:06;;;;;;;4.03;1.92;;;;;;;0.43;100.00;100063.91;10415474;28;20389;-74
2023/03/07 20:55:07;;;;;;;1.90;1.77;;;;;;;0.34;100.00;100070.16;10398154;28;20068;-72
2023/03/07 21:00:09;;;;;;;4.78;2.30;;;;;;;0.22;100.00;100066.88;10413762;28;20048;-73
2023/03/07 21:05:10;;;;;;;4.78;2.58;;;;;;;0.20;100.00;100079.50;10413905;28;20061;-74
2023/03/07 21:10:11;;;;;;;2.33;2.00;;;;;;;0.09;100.00;100077.88;10412821;28;20465;-73
2023/03/07 21:15:11;;;;;;;3.05;2.45;;;;;;;0.01;100.00;100083.13;10412358;28;20107;-73
2023/03/07 21:20:11;;;;;;;2.85;2.40;;;;;;;-0.14;100.00;100073.97;10413428;28;20168;-72
2023/03/07 21:25:13;;;;;;;3.20;2.75;;;;;;;-0.11;100.00;100073.69;10413643;28;20064;-72
2023/03/07 21:30:14;;;;;;;6.88;2.17;;;;;;;-0.18;100.00;100077.94;10414036;28;20037;-72
2023/03/07 21:35:14;;;;;;;5.32;2.17;;;;;;;-0.22;100.00;100093.34;10412261;28;20073;-70
2023/03/07 21:40:15;;;;;;;5.30;2.85;;;;;;;-0.30;100.00;100091.41;10418639;28;20041;-73
2023/03/07 21:45:15;;;;;;;4.93;2.45;;;;;;;-0.42;100.00;100081.13;10420536;28;20037;-73
2023/03/07 21:50:16;;;;;;;6.70;3.08;;;;;;;-0.41;100.00;100085.47;10422409;28;20102;-72
2023/03/07 21:55:16;;;;;;;3.15;2.63;;;;;;;-0.47;100.00;100089.53;10402500;28;20029;-73
2023/03/07 22:00:18;;;;;;;3.83;2.42;;;;;;;-0.48;100.00;100096.69;10420857;28;20037;-72
2023/03/07 22:05:21;;;;;;;3.60;2.67;;;;;;;-0.46;100.00;100091.22;10419075;28;20056;-71
2023/03/07 22:10:22;;;;;;;5.05;3.88;;;;;;;-0.55;100.00;100092.91;10418427;28;20026;-71
2023/03/07 22:15:22;;;;;;;9.68;3.17;;;;;;;-0.67;100.00;100094.09;10419292;28;20438;-73
2023/03/07 22:20:22;;;;;;;3.45;3.03;;;;;;;-0.73;100.00;100089.38;10419549;28;20122;-72
2023/03/07 22:25:23;;;;;;;12.07;2.92;;;;;;;-0.75;100.00;100091.31;10419925;28;20033;-72
2023/03/07 22:30:23;;;;;;;3.13;2.47;;;;;;;-0.84;100.00;100103.66;10419545;28;20452;-73
2023/03/07 22:35:24;;;;;;;3.10;2.83;;;;;;;-0.76;100.00;100108.25;10421129;28;20061;-73
2023/03/07 22:40:24;;;;;;;4.90;2.38;;;;;;;-0.67;100.00;100099.41;10419608;28;20037;-73
2023/03/07 22:45:25;;;;;;;4.30;3.05;;;;;;;-0.58;100.00;100111.81;10417515;28;20140;-73
2023/03/07 22:50:25;;;;;;;4.15;3.72;;;;;;;-0.43;100.00;100106.03;10417293;28;20515;-73
2023/03/07 22:55:25;;;;;;;4.55;4.15;;;;;;;-0.29;100.00;100108.22;10418404;28;20141;-73
2023/03/07 23:00:26;;;;;;;5.53;3.15;;;;;;;-0.33;100.00;100093.53;10418300;28;20030;-73
2023/03/07 23:05:26;;;;;;;4.80;3.70;;;;;;;-0.44;100.00;100088.41;10418006;28;20535;-72
2023/03/07 23:10:27;;;;;;;7.32;2.97;;;;;;;-0.56;100.00;100085.09;10417883;28;20092;-73
2023/03/07 23:15:27;;;;;;;4.10;3.05;;;;;;;-0.65;100.00;100078.00;10416365;28;20050;-74
2023/03/07 23:20:29;;;;;;;4.10;2.40;;;;;;;-0.67;100.00;100071.97;10417037;28;20116;-73